createdAt,value
2019-02-14T00:02:39.842Z,12.20
2019-02-14T00:07:45.103Z,13.30
2019-02-14T00:12:50.387Z,13.30
2019-02-14T00:17:55.655Z,13.10
2019-02-14T00:23:00.890Z,12.90
2019-02-14T00:28:06.311Z,12.90
2019-02-14T00:33:11.612Z,13.10
2019-02-14T00:38:16.936Z,13.30
2019-02-14T00:43:22.191Z,13.50
2019-02-14T00:48:27.470Z,13.40
2019-02-14T00:53:32.730Z,14.10
2019-02-14T00:58:38.006Z,13.90
2019-02-14T01:03:43.324Z,13.00
2019-02-14T01:08:49.625Z,12.40
2019-02-14T01:13:54.887Z,12.70
2019-02-14T01:19:00.231Z,12.60
2019-02-14T01:24:05.540Z,12.70
2019-02-14T01:29:10.832Z,13.00
2019-02-14T01:34:16.133Z,13.10
2019-02-14T01:39:21.749Z,13.10
2019-02-14T01:44:27.047Z,12.90
2019-02-14T01:49:32.361Z,12.90
2019-02-14T01:54:37.708Z,13.20
2019-02-14T01:59:42.942Z,12.50
2019-02-14T02:04:48.226Z,12.50
2019-02-14T02:09:53.539Z,12.70
2019-02-14T02:14:59.119Z,13.00
2019-02-14T02:20:06.573Z,13.80
2019-02-14T02:25:12.335Z,13.50
2019-02-14T02:30:17.619Z,13.70
2019-02-14T02:35:22.914Z,13.80
2019-02-14T02:40:28.219Z,13.40
2019-02-14T02:45:33.516Z,13.10
2019-02-14T02:50:38.981Z,11.60
2019-02-14T02:55:44.281Z,12.60
2019-02-14T03:00:49.603Z,12.70
2019-02-14T03:05:54.899Z,12.70
2019-02-14T03:11:00.216Z,12.60
2019-02-14T03:16:05.570Z,12.50
2019-02-14T03:21:10.893Z,12.40
2019-02-14T03:26:16.199Z,11.80
2019-02-14T03:31:21.500Z,12.00
2019-02-14T03:36:26.873Z,11.80
2019-02-14T03:41:32.187Z,12.60
2019-02-14T03:46:37.476Z,12.40
2019-02-14T03:51:42.785Z,13.00
2019-02-14T03:56:48.072Z,12.70
2019-02-14T04:01:53.379Z,12.60
2019-02-14T04:06:58.747Z,11.40
2019-02-14T04:12:04.053Z,11.30
2019-02-14T04:17:09.330Z,12.50
2019-02-14T04:22:14.652Z,12.90
2019-02-14T04:27:19.960Z,13.20
2019-02-14T04:32:25.350Z,13.10
2019-02-14T04:37:30.647Z,13.10
2019-02-14T04:42:35.934Z,13.40
2019-02-14T04:47:41.243Z,13.40
2019-02-14T04:52:46.536Z,13.00
2019-02-14T04:57:51.828Z,12.20
2019-02-14T05:02:57.186Z,12.70
2019-02-14T05:08:02.489Z,12.20
2019-02-14T05:13:07.780Z,12.40
2019-02-14T05:18:13.121Z,11.70
2019-02-14T05:23:18.627Z,12.60
2019-02-14T05:28:24.106Z,12.60
2019-02-14T05:33:29.484Z,12.70
2019-02-14T05:38:34.802Z,12.10
2019-02-14T05:43:40.112Z,12.70
2019-02-14T05:48:45.432Z,12.70
2019-02-14T05:53:50.718Z,11.60
2019-02-14T05:58:56.356Z,11.30
2019-02-14T06:04:01.909Z,11.60
2019-02-14T06:09:07.294Z,11.70
2019-02-14T06:14:12.616Z,11.30
2019-02-14T06:19:19.738Z,12.40
2019-02-14T06:24:25.965Z,12.20
2019-02-14T06:29:31.254Z,12.30
2019-02-14T06:34:36.558Z,12.80
2019-02-14T06:39:41.856Z,13.00
2019-02-14T06:44:47.171Z,12.70
2019-02-14T06:49:52.469Z,12.80
2019-02-14T06:54:57.856Z,12.60
2019-02-14T07:00:03.627Z,12.60
2019-02-14T07:05:10.388Z,12.90
2019-02-14T07:10:15.714Z,13.40
2019-02-14T07:15:20.997Z,13.20
2019-02-14T07:20:27.366Z,13.20
2019-02-14T07:25:32.661Z,13.40
2019-02-14T07:30:37.975Z,13.50
2019-02-14T07:35:43.285Z,13.60
2019-02-14T07:40:48.584Z,13.80
2019-02-14T07:45:54.996Z,14.20
2019-02-14T07:51:00.334Z,14.20
2019-02-14T07:56:05.711Z,14.50
2019-02-14T08:01:11.008Z,14.50
2019-02-14T08:06:16.391Z,14.60
2019-02-14T08:11:21.711Z,14.70
2019-02-14T08:16:27.013Z,14.50
2019-02-14T08:21:32.319Z,14.20
2019-02-14T08:26:37.612Z,14.00
2019-02-14T08:31:42.915Z,13.50
2019-02-14T08:36:48.193Z,13.20
2019-02-14T08:41:53.526Z,14.00
2019-02-14T08:46:59.072Z,13.90
2019-02-14T08:52:04.369Z,14.30
2019-02-14T08:57:09.672Z,14.20
2019-02-14T09:02:16.007Z,14.80
2019-02-14T09:07:21.294Z,15.10
2019-02-14T09:12:27.672Z,14.90
2019-02-14T09:17:32.970Z,14.10
2019-02-14T09:22:38.286Z,14.80
2019-02-14T09:27:43.677Z,15.00
2019-02-14T09:32:49.239Z,15.50
2019-02-14T09:38:02.819Z,15.00
2019-02-14T09:43:01.471Z,15.20
2019-02-14T09:48:06.788Z,15.10
2019-02-14T09:53:12.372Z,15.10
2019-02-14T09:58:17.717Z,15.30
2019-02-14T10:03:23.011Z,15.80
2019-02-14T10:08:28.321Z,16.10
2019-02-14T10:13:34.170Z,15.80
2019-02-14T10:18:39.528Z,16.30
2019-02-14T10:23:44.819Z,16.30
2019-02-14T10:28:50.134Z,16.40
2019-02-14T10:33:55.455Z,16.70
2019-02-14T10:39:00.750Z,16.40
2019-02-14T10:44:06.121Z,16.30
2019-02-14T10:49:11.413Z,16.00
2019-02-14T10:54:16.732Z,16.20
2019-02-14T10:59:22.027Z,16.30
2019-02-14T11:04:27.395Z,16.70
2019-02-14T11:09:32.706Z,17.00
2019-02-14T11:14:38.098Z,16.70
2019-02-14T11:19:43.417Z,16.80
2019-02-14T11:24:48.750Z,16.90
2019-02-14T11:29:54.252Z,16.80
2019-02-14T11:34:59.553Z,17.00
2019-02-14T11:40:07.601Z,17.00
2019-02-14T11:45:20.743Z,17.00
2019-02-14T11:50:26.050Z,16.90
2019-02-14T11:55:31.371Z,17.40
2019-02-14T12:00:36.686Z,17.30
2019-02-14T12:05:41.974Z,17.20
2019-02-14T12:10:47.362Z,17.20
2019-02-14T12:15:52.664Z,17.30
2019-02-14T12:20:59.517Z,16.80
2019-02-14T12:26:05.801Z,15.70
2019-02-14T12:31:11.267Z,14.80
2019-02-14T12:36:16.573Z,14.90
2019-02-14T12:41:21.877Z,14.50
2019-02-14T12:46:27.183Z,15.10
2019-02-14T12:51:32.519Z,14.80
2019-02-14T12:56:37.813Z,15.10
2019-02-14T13:01:43.105Z,14.70
2019-02-14T13:06:48.406Z,15.20
2019-02-14T13:11:53.845Z,15.30
2019-02-14T13:16:59.137Z,15.40
2019-02-14T13:22:04.630Z,14.70
2019-02-14T13:27:09.951Z,14.10
2019-02-14T13:32:15.320Z,14.20
2019-02-14T13:37:20.645Z,14.60
2019-02-14T13:42:25.936Z,14.70
2019-02-14T13:47:32.089Z,14.80
2019-02-14T13:52:37.418Z,15.30
2019-02-14T13:57:42.795Z,15.50
2019-02-14T14:02:48.079Z,15.50
2019-02-14T14:07:53.383Z,15.30
2019-02-14T14:12:58.702Z,15.20
2019-02-14T14:18:04.023Z,15.70
2019-02-14T14:23:09.328Z,15.40
2019-02-14T14:28:14.621Z,15.40
2019-02-14T14:33:19.945Z,14.70
2019-02-14T14:38:25.249Z,14.40
2019-02-14T14:43:35.141Z,14.40
2019-02-14T14:48:40.975Z,14.20
2019-02-14T14:53:46.272Z,13.80
2019-02-14T14:58:51.569Z,13.40
2019-02-14T15:03:56.874Z,13.80
2019-02-14T15:09:02.170Z,13.50
2019-02-14T15:14:08.663Z,14.40
2019-02-14T15:19:13.966Z,14.10
2019-02-14T15:24:19.281Z,14.20
2019-02-14T15:29:24.833Z,14.00
2019-02-14T15:34:31.150Z,13.40
2019-02-14T15:39:36.615Z,13.30
2019-02-14T15:44:41.998Z,13.20
2019-02-14T15:49:49.375Z,13.40
2019-02-14T15:54:55.606Z,13.50
2019-02-14T16:00:01.428Z,12.60
2019-02-14T16:05:07.493Z,12.90
2019-02-14T16:10:18.603Z,12.40
2019-02-14T16:15:19.755Z,13.30
2019-02-14T16:20:25.124Z,12.90
2019-02-14T16:25:30.515Z,13.00
2019-02-14T16:30:35.812Z,12.60
2019-02-14T16:35:41.198Z,13.70
2019-02-14T16:40:46.498Z,14.10
2019-02-14T16:45:51.791Z,14.30
2019-02-14T16:50:57.095Z,14.10
2019-02-14T16:56:02.491Z,14.20
2019-02-14T17:01:07.819Z,14.50
2019-02-14T17:06:13.121Z,14.60
2019-02-14T17:11:18.422Z,14.90
2019-02-14T17:16:23.728Z,15.00
2019-02-14T17:21:29.039Z,15.10
2019-02-14T17:26:34.345Z,15.10
2019-02-14T17:31:40.027Z,14.40
2019-02-14T17:36:45.319Z,14.30
2019-02-14T17:41:50.608Z,13.60
2019-02-14T17:46:55.923Z,13.70
2019-02-14T17:52:01.229Z,13.90
2019-02-14T17:57:06.589Z,13.90
2019-02-14T18:02:12.171Z,14.00
2019-02-14T18:07:17.462Z,14.00
2019-02-14T18:12:22.774Z,14.10
2019-02-14T18:17:28.432Z,13.90
2019-02-14T18:22:33.727Z,13.80
2019-02-14T18:27:39.023Z,14.00
2019-02-14T18:32:44.343Z,14.10
2019-02-14T18:37:49.722Z,14.00
2019-02-14T18:42:55.037Z,13.90
2019-02-14T18:48:00.341Z,14.10
2019-02-14T18:53:05.710Z,14.30
2019-02-14T18:58:10.997Z,14.30
2019-02-14T19:03:16.298Z,14.20
2019-02-14T19:08:21.626Z,14.50
2019-02-14T19:13:27.488Z,15.00
2019-02-14T19:18:32.875Z,15.10
2019-02-14T19:23:38.175Z,15.20
2019-02-14T19:28:43.483Z,15.20
2019-02-14T19:33:48.850Z,15.30
2019-02-14T19:38:54.322Z,15.40
2019-02-14T19:43:59.631Z,15.10
2019-02-14T19:49:05.029Z,14.90
2019-02-14T19:54:10.408Z,15.00
2019-02-14T19:59:15.905Z,15.20
2019-02-14T20:04:22.295Z,15.00
2019-02-14T20:09:27.726Z,14.50
2019-02-14T20:14:33.088Z,14.40
2019-02-14T20:19:38.377Z,14.40
2019-02-14T20:24:43.752Z,14.40
2019-02-14T20:29:50.163Z,14.40
2019-02-14T20:34:55.494Z,14.10
2019-02-14T20:40:00.883Z,14.30
2019-02-14T20:45:09.094Z,14.10
2019-02-14T20:50:17.138Z,14.00
2019-02-14T20:55:26.684Z,14.10
2019-02-14T21:00:34.032Z,14.20
2019-02-14T21:05:39.389Z,14.50
2019-02-14T21:10:44.994Z,13.90
2019-02-14T21:15:50.361Z,13.50
2019-02-14T21:20:55.655Z,12.90
2019-02-14T21:26:00.968Z,13.20
2019-02-14T21:31:07.256Z,13.10
2019-02-14T21:36:12.567Z,12.90
2019-02-14T21:41:17.883Z,12.70
2019-02-14T21:46:23.179Z,13.00
2019-02-14T21:51:28.505Z,12.80
2019-02-14T21:56:33.792Z,12.40
2019-02-14T22:01:39.137Z,12.50
2019-02-14T22:06:44.418Z,13.00
2019-02-14T22:11:50.810Z,13.20
2019-02-14T22:16:56.097Z,12.80
2019-02-14T22:22:01.387Z,12.40
2019-02-14T22:27:06.719Z,12.60
2019-02-14T22:32:13.100Z,13.10
2019-02-14T22:37:18.636Z,12.80
2019-02-14T22:42:24.017Z,13.10
2019-02-14T22:47:29.396Z,12.90
2019-02-14T22:52:34.750Z,13.10
2019-02-14T22:57:40.318Z,12.80
2019-02-14T23:02:45.629Z,12.90
2019-02-14T23:07:50.933Z,12.70
2019-02-14T23:12:56.407Z,13.30
2019-02-14T23:18:01.827Z,12.90
2019-02-14T23:23:07.202Z,12.90
2019-02-14T23:28:12.785Z,12.80
2019-02-14T23:33:18.084Z,12.10
2019-02-14T23:38:23.680Z,12.00
2019-02-14T23:43:29.116Z,12.60
2019-02-14T23:48:34.662Z,12.40
2019-02-14T23:53:40.011Z,12.40
2019-02-14T23:58:46.370Z,12.20
